createdAt,value
2022-09-23T00:01:07.820Z,100668.50
2022-09-23T00:03:37.252Z,100703.13
2022-09-23T00:06:13.309Z,100633.06
2022-09-23T00:08:41.040Z,100652.06
2022-09-23T00:11:14.091Z,100696.25
2022-09-23T00:13:42.889Z,100698.84
2022-09-23T00:16:12.993Z,100678.06
2022-09-23T00:18:40.765Z,100662.47
2022-09-23T00:21:10.905Z,100697.09
2022-09-23T00:23:38.723Z,100691.91
2022-09-23T00:26:07.807Z,100696.25
2022-09-23T00:28:35.141Z,100688.47
2022-09-23T00:31:14.035Z,100666.81
2022-09-23T00:33:41.034Z,100664.28
2022-09-23T00:36:11.771Z,100651.28
2022-09-23T00:38:39.074Z,100600.22
2022-09-23T00:41:06.484Z,100680.66
2022-09-23T00:43:47.726Z,100674.59
2022-09-23T00:46:37.171Z,100677.19
2022-09-23T00:49:18.510Z,100653.00
2022-09-23T00:51:54.148Z,100629.63
2022-09-23T00:54:23.947Z,100612.34
2022-09-23T00:56:50.901Z,100636.44
2022-09-23T00:59:17.629Z,100645.13
2022-09-23T01:01:44.675Z,100534.47
2022-09-23T01:04:11.560Z,100619.28
2022-09-23T01:06:38.220Z,100663.47
2022-09-23T01:09:04.976Z,100579.53
2022-09-23T01:11:38.072Z,100645.28
2022-09-23T01:14:17.083Z,100675.63
2022-09-23T01:17:24.277Z,100630.63
2022-09-23T01:19:50.825Z,100675.63
2022-09-23T01:22:32.479Z,100676.44
2022-09-23T01:25:16.534Z,100643.53
2022-09-23T01:28:11.351Z,100675.56
2022-09-23T01:30:44.300Z,100669.50
2022-09-23T01:33:39.556Z,100647.03
2022-09-23T01:36:22.679Z,100663.41
2022-09-23T01:38:59.193Z,100661.53
2022-09-23T01:41:34.550Z,100640.78
2022-09-23T01:44:11.303Z,100658.13
2022-09-23T01:46:51.687Z,100659.03
2022-09-23T01:49:21.394Z,100660.78
2022-09-23T01:52:23.244Z,100662.53
2022-09-23T01:55:13.084Z,100659.00
2022-09-23T01:58:14.903Z,100665.97
2022-09-23T02:00:54.775Z,100662.47
2022-09-23T02:03:28.122Z,100657.31
2022-09-23T02:06:10.652Z,100659.03
2022-09-23T02:08:58.278Z,100637.38
2022-09-23T02:11:25.015Z,100639.97
2022-09-23T02:14:19.586Z,100638.25
2022-09-23T02:16:50.098Z,100659.94
2022-09-23T02:19:24.652Z,100661.69
2022-09-23T02:22:08.393Z,100644.41
2022-09-23T02:24:38.294Z,100628.84
2022-09-23T02:27:19.765Z,100673.84
2022-09-23T02:29:53.978Z,100666.88
2022-09-23T02:32:20.509Z,100668.59
2022-09-23T02:35:03.316Z,100640.03
2022-09-23T02:37:33.466Z,100661.56
2022-09-23T02:40:23.574Z,100660.69
2022-09-23T02:43:05.608Z,100624.38
2022-09-23T02:45:33.829Z,100628.72
2022-09-23T02:48:19.439Z,100646.09
2022-09-23T02:50:47.780Z,100658.22
2022-09-23T02:53:16.186Z,100673.84
2022-09-23T02:55:43.209Z,100636.63
2022-09-23T02:58:13.409Z,100532.00
2022-09-23T03:00:46.060Z,100665.22
2022-09-23T03:03:39.065Z,100643.59
2022-09-23T03:06:47.684Z,100678.22
2022-09-23T03:09:24.698Z,100664.38
2022-09-23T03:12:02.606Z,100649.69
2022-09-23T03:14:40.880Z,100675.63
2022-09-23T03:17:19.984Z,100648.81
2022-09-23T03:19:54.002Z,100629.78
2022-09-23T03:22:44.059Z,100647.06
2022-09-23T03:25:13.467Z,100666.13
2022-09-23T03:27:42.498Z,100631.53
2022-09-23T03:30:10.678Z,100669.59
2022-09-23T03:32:38.432Z,100687.78
2022-09-23T03:35:06.075Z,100670.47
2022-09-23T03:37:39.400Z,100638.44
2022-09-23T03:40:19.836Z,100665.28
2022-09-23T03:42:50.204Z,100632.38
2022-09-23T03:45:25.903Z,100663.53
2022-09-23T03:47:52.518Z,100644.50
2022-09-23T03:50:20.884Z,100563.16
2022-09-23T03:52:50.466Z,100569.22
2022-09-23T03:55:19.239Z,100641.00
2022-09-23T03:57:46.392Z,100637.59
2022-09-23T04:00:14.784Z,100664.41
2022-09-23T04:02:42.032Z,100632.38
2022-09-23T04:05:09.575Z,100666.16
2022-09-23T04:07:36.612Z,100636.72
2022-09-23T04:10:05.022Z,100641.94
2022-09-23T04:12:31.708Z,100671.34
2022-09-23T04:14:58.428Z,100641.91
2022-09-23T04:17:25.256Z,100602.94
2022-09-23T04:19:51.875Z,100654.03
2022-09-23T04:22:18.508Z,100642.78
2022-09-23T04:24:45.113Z,100626.28
2022-09-23T04:27:11.730Z,100628.88
2022-09-23T04:29:38.388Z,100577.00
2022-09-23T04:32:05.143Z,100629.78
2022-09-23T04:34:31.746Z,100647.09
2022-09-23T04:36:58.401Z,100596.91
2022-09-23T04:39:25.001Z,100619.41
2022-09-23T04:41:51.644Z,100634.13
2022-09-23T04:44:18.880Z,100609.91
2022-09-23T04:46:49.373Z,100647.09
2022-09-23T04:49:16.406Z,100672.22
2022-09-23T04:51:43.721Z,100680.03
2022-09-23T04:54:12.769Z,100686.06
2022-09-23T04:56:42.462Z,100685.19
2022-09-23T04:59:09.404Z,100629.81
2022-09-23T05:01:36.755Z,100668.72
2022-09-23T05:04:10.186Z,100691.25
2022-09-23T05:06:37.477Z,100655.75
2022-09-23T05:09:07.090Z,100654.00
2022-09-23T05:11:34.615Z,100647.06
2022-09-23T05:14:01.585Z,100673.03
2022-09-23T05:16:28.344Z,100642.75
2022-09-23T05:18:54.978Z,100678.22
2022-09-23T05:21:23.880Z,100668.69
2022-09-23T05:23:56.599Z,100705.84
2022-09-23T05:26:28.119Z,100669.47
2022-09-23T05:28:55.393Z,100655.66
2022-09-23T05:31:24.700Z,100661.66
2022-09-23T05:33:53.738Z,100714.28
2022-09-23T05:36:22.064Z,100520.63
2022-09-23T05:38:50.146Z,100643.34
2022-09-23T05:41:17.871Z,100628.50
2022-09-23T05:43:45.149Z,100561.06
2022-09-23T05:46:14.517Z,100541.19
2022-09-23T05:48:42.301Z,100616.38
2022-09-23T05:51:13.059Z,100535.00
2022-09-23T05:53:44.935Z,100547.03
2022-09-23T05:56:17.262Z,100556.22
2022-09-23T05:58:44.641Z,100647.69
2022-09-23T06:01:15.244Z,100722.66
2022-09-23T06:03:41.904Z,100711.06
2022-09-23T06:06:14.790Z,100595.28
2022-09-23T06:08:42.439Z,100594.38
2022-09-23T06:11:10.244Z,100569.91
2022-09-23T06:13:38.366Z,100673.28
2022-09-23T06:16:10.293Z,100566.28
2022-09-23T06:18:42.209Z,100594.53
2022-09-23T06:21:11.757Z,100553.44
2022-09-23T06:23:41.082Z,100610.31
2022-09-23T06:26:10.354Z,100638.75
2022-09-23T06:28:38.849Z,100563.28
2022-09-23T06:31:12.853Z,100735.41
2022-09-23T06:33:39.966Z,100548.75
2022-09-23T06:36:07.851Z,100639.84
2022-09-23T06:38:35.525Z,100566.25
2022-09-23T06:41:03.284Z,100609.50
2022-09-23T06:43:30.666Z,100569.47
2022-09-23T06:46:00.987Z,100574.44
2022-09-23T06:48:28.743Z,100662.78
2022-09-23T06:50:59.714Z,100670.66
2022-09-23T06:53:26.490Z,100634.28
2022-09-23T06:56:02.515Z,100628.75
2022-09-23T06:58:31.729Z,100658.94
2022-09-23T07:01:02.939Z,100623.91
2022-09-23T07:03:29.863Z,100629.31
2022-09-23T07:05:56.723Z,100676.53
2022-09-23T07:08:24.926Z,100627.78
2022-09-23T07:10:53.091Z,100662.75
2022-09-23T07:13:19.839Z,100623.56
2022-09-23T07:15:54.523Z,100720.31
2022-09-23T07:18:25.707Z,100551.03
2022-09-23T07:20:53.428Z,100590.66
2022-09-23T07:23:20.945Z,100611.41
2022-09-23T07:25:50.413Z,100626.63
2022-09-23T07:28:17.892Z,100656.09
2022-09-23T07:30:56.036Z,100566.06
2022-09-23T07:33:32.128Z,100620.84
2022-09-23T07:35:59.163Z,100611.25
2022-09-23T07:38:30.081Z,100586.00
2022-09-23T07:41:11.410Z,100581.72
2022-09-23T07:43:39.772Z,100676.25
2022-09-23T07:46:10.384Z,100596.94
2022-09-23T07:48:38.150Z,100591.97
2022-09-23T07:51:12.969Z,100601.78
2022-09-23T07:53:40.246Z,100577.34
2022-09-23T07:56:07.434Z,100681.25
2022-09-23T07:58:35.155Z,100565.81
2022-09-23T08:01:04.280Z,100584.25
2022-09-23T08:03:31.128Z,100658.31
2022-09-23T08:06:13.823Z,100738.97
2022-09-23T08:08:43.770Z,100674.63
2022-09-23T08:11:13.392Z,100653.16
2022-09-23T08:13:41.173Z,100738.41
2022-09-23T08:16:08.347Z,100601.03
2022-09-23T08:18:35.408Z,100764.84
2022-09-23T08:21:02.318Z,100568.47
2022-09-23T08:23:33.540Z,100672.84
2022-09-23T08:26:03.011Z,100649.25
2022-09-23T08:28:30.333Z,100650.97
2022-09-23T08:30:57.087Z,100564.06
2022-09-23T08:33:24.687Z,100724.81
2022-09-23T08:35:52.503Z,100723.63
2022-09-23T08:38:20.393Z,100619.19
2022-09-23T08:40:49.609Z,100568.22
2022-09-23T08:43:26.489Z,100591.91
2022-09-23T08:45:55.514Z,100639.81
2022-09-23T08:48:36.819Z,100716.63
2022-09-23T08:51:12.491Z,100642.09
2022-09-23T08:53:39.955Z,100739.69
2022-09-23T08:56:19.386Z,100731.91
2022-09-23T08:59:14.865Z,100642.50
2022-09-23T09:01:46.209Z,100721.25
2022-09-23T09:04:23.131Z,100726.13
2022-09-23T09:07:24.662Z,100641.50
2022-09-23T09:09:50.726Z,100722.59
2022-09-23T09:12:40.920Z,100719.28
2022-09-23T09:15:15.371Z,100633.31
2022-09-23T09:18:01.239Z,100720.38
2022-09-23T09:20:59.407Z,100714.22
2022-09-23T09:23:40.124Z,100684.59
2022-09-23T09:26:15.613Z,100704.59
2022-09-23T09:28:48.893Z,100681.00
2022-09-23T09:31:24.689Z,100710.69
2022-09-23T09:34:20.293Z,100688.75
2022-09-23T09:37:06.173Z,100675.84
2022-09-23T09:39:35.247Z,100659.84
2022-09-23T09:42:03.428Z,100689.72
2022-09-23T09:44:46.787Z,100687.81
2022-09-23T09:47:28.746Z,100703.94
2022-09-23T09:50:11.884Z,100704.88
2022-09-23T09:52:38.473Z,100673.59
2022-09-23T09:55:14.423Z,100705.72
2022-09-23T09:57:52.127Z,100681.59
2022-09-23T10:00:26.362Z,100700.25
2022-09-23T10:02:53.801Z,100663.94
2022-09-23T10:05:49.705Z,100664.00
2022-09-23T10:08:24.737Z,100688.50
2022-09-23T10:11:13.045Z,100690.22
2022-09-23T10:13:39.648Z,100669.94
2022-09-23T10:16:07.414Z,100620.25
2022-09-23T10:18:37.508Z,100695.09
2022-09-23T10:21:09.061Z,100695.59
2022-09-23T10:24:01.593Z,100675.34
2022-09-23T10:26:34.452Z,100694.75
2022-09-23T10:29:23.130Z,100671.31
2022-09-23T10:31:53.217Z,100690.72
2022-09-23T10:34:27.705Z,100661.38
2022-09-23T10:37:01.799Z,100650.78
2022-09-23T10:39:52.032Z,100670.88
2022-09-23T10:43:02.273Z,100682.44
2022-09-23T10:45:56.094Z,100681.00
2022-09-23T10:48:40.781Z,100677.41
2022-09-23T10:51:14.447Z,100668.50
2022-09-23T10:53:59.687Z,100670.75
2022-09-23T10:56:36.240Z,100667.22
2022-09-23T10:59:41.173Z,100679.09
2022-09-23T11:02:25.464Z,100654.13
2022-09-23T11:05:18.683Z,100638.06
2022-09-23T11:07:48.332Z,100656.81
2022-09-23T11:10:45.517Z,100633.31
2022-09-23T11:13:30.988Z,100655.63
2022-09-23T11:16:24.732Z,100651.34
2022-09-23T11:19:21.902Z,100649.31
2022-09-23T11:22:08.308Z,100643.31
2022-09-23T11:24:58.085Z,100642.72
2022-09-23T11:28:01.518Z,100641.94
2022-09-23T11:30:59.843Z,100625.25
2022-09-23T11:33:44.834Z,100637.81
2022-09-23T11:36:26.402Z,100637.97
2022-09-23T11:38:56.855Z,100636.50
2022-09-23T11:41:29.285Z,100640.88
2022-09-23T11:44:41.198Z,100578.81
2022-09-23T11:47:16.613Z,100625.38
2022-09-23T11:50:17.777Z,100627.56
2022-09-23T11:52:51.967Z,100635.78
2022-09-23T11:55:24.422Z,100627.09
2022-09-23T11:57:54.668Z,100572.19
2022-09-23T12:00:23.915Z,100596.28
2022-09-23T12:03:05.748Z,100620.31
2022-09-23T12:05:41.773Z,100582.81
2022-09-23T12:08:29.347Z,100626.06
2022-09-23T12:11:06.581Z,100598.94
2022-09-23T12:13:41.836Z,100616.56
2022-09-23T12:16:49.071Z,100590.97
2022-09-23T12:19:42.904Z,100595.63
2022-09-23T12:22:26.524Z,100582.38
2022-09-23T12:25:18.336Z,100603.75
2022-09-23T12:27:53.086Z,100579.69
2022-09-23T12:30:23.492Z,100547.03
2022-09-23T12:32:50.594Z,100580.75
2022-09-23T12:35:32.109Z,100590.72
2022-09-23T12:38:01.187Z,100579.94
2022-09-23T12:40:44.752Z,100588.56
2022-09-23T12:43:33.061Z,100605.84
2022-09-23T12:46:18.082Z,100596.34
2022-09-23T12:49:00.593Z,100571.25
2022-09-23T12:51:32.841Z,100550.72
2022-09-23T12:54:05.363Z,100588.94
2022-09-23T12:56:37.944Z,100588.75
2022-09-23T12:59:25.919Z,100588.09
2022-09-23T13:01:53.540Z,100565.09
2022-09-23T13:05:14.632Z,100559.84
2022-09-23T13:07:47.192Z,100547.09
2022-09-23T13:10:32.844Z,100550.06
2022-09-23T13:13:02.676Z,100544.00
2022-09-23T13:15:30.969Z,100563.03
2022-09-23T13:18:20.254Z,100563.97
2022-09-23T13:20:52.055Z,100553.78
2022-09-23T13:23:34.296Z,100540.81
2022-09-23T13:26:09.828Z,100505.06
2022-09-23T13:28:54.050Z,100567.16
2022-09-23T13:31:21.379Z,100548.97
2022-09-23T13:33:59.669Z,100506.72
2022-09-23T13:36:27.048Z,100514.72
2022-09-23T13:38:53.714Z,100531.59
2022-09-23T13:41:28.570Z,100549.91
2022-09-23T13:44:00.568Z,100466.19
2022-09-23T13:46:40.842Z,100494.81
2022-09-23T13:49:26.785Z,100513.91
2022-09-23T13:51:55.190Z,100446.91
2022-09-23T13:54:35.481Z,100533.78
2022-09-23T13:57:03.058Z,100527.69
2022-09-23T13:59:36.784Z,100467.53
2022-09-23T14:02:20.077Z,100526.06
2022-09-23T14:04:47.316Z,100351.53
2022-09-23T14:07:16.855Z,100469.69
2022-09-23T14:09:48.314Z,100419.03
2022-09-23T14:12:21.943Z,100514.41
2022-09-23T14:14:51.227Z,100521.00
2022-09-23T14:17:23.399Z,100445.66
2022-09-23T14:19:51.060Z,100520.53
2022-09-23T14:22:25.130Z,100505.94
2022-09-23T14:24:52.459Z,100432.00
2022-09-23T14:27:30.015Z,100499.75
2022-09-23T14:29:58.015Z,100503.34
2022-09-23T14:32:28.260Z,100483.16
2022-09-23T14:35:01.012Z,100510.81
2022-09-23T14:37:55.356Z,100498.75
2022-09-23T14:40:22.223Z,100513.50
2022-09-23T14:43:15.780Z,100483.50
2022-09-23T14:45:50.549Z,100500.75
2022-09-23T14:48:23.047Z,100510.34
2022-09-23T14:51:07.472Z,100520.78
2022-09-23T14:53:35.505Z,100516.84
2022-09-23T14:56:12.024Z,100493.34
2022-09-23T14:58:54.972Z,100519.88
2022-09-23T15:01:30.916Z,100502.88
2022-09-23T15:04:10.052Z,100504.72
2022-09-23T15:06:39.609Z,100452.38
2022-09-23T15:09:07.404Z,100496.75
2022-09-23T15:11:36.089Z,100487.09
2022-09-23T15:14:33.114Z,100485.91
2022-09-23T15:16:51.507Z,100491.88
2022-09-23T15:19:21.050Z,100483.34
2022-09-23T15:21:53.219Z,100476.13
2022-09-23T15:24:35.985Z,100510.56
2022-09-23T15:27:09.768Z,100435.94
2022-09-23T15:29:36.885Z,100447.41
2022-09-23T15:32:03.583Z,100322.41
2022-09-23T15:34:31.785Z,100381.97
2022-09-23T15:36:58.470Z,100393.16
2022-09-23T15:39:35.547Z,100421.50
2022-09-23T15:42:02.773Z,100505.56
2022-09-23T15:44:30.330Z,100514.78
2022-09-23T15:47:01.126Z,100494.94
2022-09-23T15:49:31.737Z,100469.47
2022-09-23T15:52:04.216Z,100499.09
2022-09-23T15:54:32.502Z,100512.25
2022-09-23T15:57:01.181Z,100501.28
2022-09-23T15:59:28.776Z,100512.53
2022-09-23T16:01:56.927Z,100426.91
2022-09-23T16:04:23.757Z,100517.50
2022-09-23T16:06:50.550Z,100489.03
2022-09-23T16:09:17.324Z,100499.53
2022-09-23T16:11:47.092Z,100452.94
2022-09-23T16:14:15.814Z,100513.41
2022-09-23T16:16:47.846Z,100519.66
2022-09-23T16:19:16.212Z,100500.03
2022-09-23T16:21:44.011Z,100504.59
2022-09-23T16:24:18.755Z,100488.47
2022-09-23T16:26:48.122Z,100499.56
2022-09-23T16:29:15.207Z,100514.16
2022-09-23T16:31:41.892Z,100495.00
2022-09-23T16:34:08.595Z,100519.16
2022-09-23T16:36:41.055Z,100521.97
2022-09-23T16:39:10.995Z,100424.13
2022-09-23T16:41:37.686Z,100496.00
2022-09-23T16:44:07.417Z,100376.66
2022-09-23T16:46:34.940Z,100401.34
2022-09-23T16:49:01.625Z,100493.25
2022-09-23T16:51:31.083Z,100522.06
2022-09-23T16:53:59.376Z,100517.97
2022-09-23T16:56:29.236Z,100509.19
2022-09-23T16:58:56.847Z,100501.03
2022-09-23T17:01:45.167Z,100481.03
2022-09-23T17:04:13.256Z,100518.66
2022-09-23T17:06:53.071Z,100494.25
2022-09-23T17:09:21.997Z,100523.91
2022-09-23T17:11:56.360Z,100451.97
2022-09-23T17:14:23.100Z,100500.63
2022-09-23T17:16:49.756Z,100505.38
2022-09-23T17:19:16.384Z,100508.28
2022-09-23T17:21:43.212Z,100494.78
2022-09-23T17:24:10.306Z,100519.19
2022-09-23T17:26:38.307Z,100495.44
2022-09-23T17:29:05.003Z,100489.47
2022-09-23T17:31:31.742Z,100517.34
2022-09-23T17:33:58.395Z,100473.63
2022-09-23T17:36:25.028Z,100444.88
2022-09-23T17:38:54.591Z,100500.97
2022-09-23T17:41:21.803Z,100514.09
2022-09-23T17:43:54.430Z,100538.50
2022-09-23T17:46:21.154Z,100509.41
2022-09-23T17:48:47.805Z,100522.97
2022-09-23T17:51:21.628Z,100484.47
2022-09-23T17:53:49.580Z,100545.78
2022-09-23T17:56:19.250Z,100539.81
2022-09-23T17:58:47.808Z,100537.28
2022-09-23T18:01:19.780Z,100547.09
2022-09-23T18:03:47.450Z,100545.34
2022-09-23T18:06:15.315Z,100546.47
2022-09-23T18:08:43.941Z,100547.56
2022-09-23T18:11:20.299Z,100548.59
2022-09-23T18:13:52.218Z,100544.38
2022-09-23T18:16:20.741Z,100546.34
2022-09-23T18:18:52.682Z,100541.22
2022-09-23T18:21:20.430Z,100485.34
2022-09-23T18:23:47.567Z,100460.75
2022-09-23T18:26:19.054Z,100541.31
2022-09-23T18:28:45.827Z,100545.53
2022-09-23T18:31:12.540Z,100531.31
2022-09-23T18:33:39.265Z,100541.94
2022-09-23T18:36:07.560Z,100488.75
2022-09-23T18:38:34.757Z,100550.94
2022-09-23T18:41:01.808Z,100551.84
2022-09-23T18:43:40.550Z,100553.72
2022-09-23T18:46:17.142Z,100553.75
2022-09-23T18:49:02.803Z,100557.47
2022-09-23T18:51:36.502Z,100520.44
2022-09-23T18:54:05.950Z,100535.28
2022-09-23T18:56:39.638Z,100545.03
2022-09-23T18:59:07.281Z,100554.59
2022-09-23T19:01:34.691Z,100560.72
2022-09-23T19:04:04.739Z,100561.63
2022-09-23T19:06:32.563Z,100559.13
2022-09-23T19:08:59.371Z,100549.88
2022-09-23T19:11:26.778Z,100437.66
2022-09-23T19:13:59.239Z,100534.28
2022-09-23T19:16:26.510Z,100549.84
2022-09-23T19:18:53.596Z,100547.41
2022-09-23T19:21:23.544Z,100511.28
2022-09-23T19:23:53.818Z,100568.16
2022-09-23T19:26:23.653Z,100563.06
2022-09-23T19:28:57.791Z,100551.84
2022-09-23T19:31:33.522Z,100574.22
2022-09-23T19:34:02.592Z,100573.50
2022-09-23T19:36:34.176Z,100556.31
2022-09-23T19:39:06.584Z,100515.91
2022-09-23T19:41:35.339Z,100547.06
2022-09-23T19:44:03.285Z,100565.22
2022-09-23T19:46:31.179Z,100567.91
2022-09-23T19:48:58.618Z,100520.47
2022-09-23T19:51:25.386Z,100568.97
2022-09-23T19:53:53.376Z,100549.91
2022-09-23T19:56:20.238Z,100408.50
2022-09-23T19:58:49.880Z,100391.34
2022-09-23T20:01:17.168Z,100460.28
2022-09-23T20:03:45.043Z,100343.94
2022-09-23T20:06:12.038Z,100467.34
2022-09-23T20:08:39.289Z,100381.94
2022-09-23T20:11:22.658Z,100496.56
2022-09-23T20:14:04.981Z,100343.88
2022-09-23T20:16:37.080Z,100485.41
2022-09-23T20:19:04.896Z,100469.97
2022-09-23T20:21:33.646Z,100398.44
2022-09-23T20:24:00.975Z,100545.13
2022-09-23T20:26:47.920Z,100489.06
2022-09-23T20:29:14.664Z,100480.47
2022-09-23T20:31:41.478Z,100501.22
2022-09-23T20:34:10.306Z,100537.59
2022-09-23T20:36:39.823Z,100489.19
2022-09-23T20:39:07.288Z,100562.66
2022-09-23T20:41:37.605Z,100470.25
2022-09-23T20:44:07.497Z,100551.44
2022-09-23T20:46:34.795Z,100490.25
2022-09-23T20:49:02.105Z,100511.72
2022-09-23T20:51:28.925Z,100557.31
2022-09-23T20:53:55.680Z,100459.06
2022-09-23T20:56:23.694Z,100414.31
2022-09-23T20:58:52.867Z,100584.41
2022-09-23T21:01:20.622Z,100409.88
2022-09-23T21:03:50.050Z,100455.75
2022-09-23T21:06:19.113Z,100555.06
2022-09-23T21:08:46.724Z,100473.94
2022-09-23T21:11:16.306Z,100410.84
2022-09-23T21:13:47.824Z,100555.81
2022-09-23T21:16:17.131Z,100547.13
2022-09-23T21:18:44.953Z,100408.28
2022-09-23T21:21:14.513Z,100549.97
2022-09-23T21:23:43.438Z,100560.41
2022-09-23T21:26:11.461Z,100568.16
2022-09-23T21:28:43.367Z,100570.78
2022-09-23T21:31:25.917Z,100430.94
2022-09-23T21:34:01.985Z,100443.91
2022-09-23T21:36:32.881Z,100568.34
2022-09-23T21:39:01.963Z,100564.03
2022-09-23T21:41:29.197Z,100451.03
2022-09-23T21:43:56.510Z,100368.16
2022-09-23T21:46:28.321Z,100362.97
2022-09-23T21:48:57.565Z,100368.19
2022-09-23T21:51:30.139Z,100369.00
2022-09-23T21:53:58.423Z,100355.19
2022-09-23T21:56:30.212Z,100359.47
2022-09-23T21:58:58.736Z,100332.69
2022-09-23T22:01:33.309Z,100561.41
2022-09-23T22:04:10.529Z,100354.28
2022-09-23T22:06:40.717Z,100371.63
2022-09-23T22:09:09.013Z,100550.25
2022-09-23T22:11:55.741Z,100388.06
2022-09-23T22:14:26.133Z,100495.06
2022-09-23T22:16:59.689Z,100437.28
2022-09-23T22:19:46.713Z,100319.06
2022-09-23T22:22:16.499Z,100371.63
2022-09-23T22:24:44.704Z,100395.75
2022-09-23T22:27:14.321Z,100445.81
2022-09-23T22:29:59.484Z,100369.84
2022-09-23T22:32:35.124Z,100309.44
2022-09-23T22:35:02.701Z,100528.72
2022-09-23T22:37:34.685Z,100353.53
2022-09-23T22:40:05.578Z,100474.44
2022-09-23T22:42:32.823Z,100440.75
2022-09-23T22:44:59.545Z,100545.19
2022-09-23T22:47:27.125Z,100533.06
2022-09-23T22:49:55.454Z,100519.25
2022-09-23T22:52:24.602Z,100525.38
2022-09-23T22:54:52.432Z,100536.69
2022-09-23T22:57:19.606Z,100443.50
2022-09-23T22:59:48.246Z,100475.47
2022-09-23T23:02:18.179Z,100378.72
2022-09-23T23:04:47.181Z,100482.19
2022-09-23T23:07:15.408Z,100373.50
2022-09-23T23:09:42.176Z,100517.78
2022-09-23T23:12:08.899Z,100485.72
2022-09-23T23:14:36.122Z,100477.13
2022-09-23T23:17:07.176Z,100563.56
2022-09-23T23:19:35.312Z,100540.28
2022-09-23T23:22:02.115Z,100530.69
2022-09-23T23:24:29.002Z,100513.38
2022-09-23T23:26:55.644Z,100426.19
2022-09-23T23:29:23.267Z,100472.00
2022-09-23T23:31:50.348Z,100546.34
2022-09-23T23:34:19.788Z,100510.94
2022-09-23T23:36:47.957Z,100542.03
2022-09-23T23:39:14.924Z,100519.59
2022-09-23T23:41:41.725Z,100508.34
2022-09-23T23:44:08.750Z,100507.47
2022-09-23T23:46:37.337Z,100524.72
2022-09-23T23:49:04.517Z,100539.47
2022-09-23T23:51:31.256Z,100476.41
2022-09-23T23:53:59.651Z,100505.78
2022-09-23T23:56:27.187Z,100529.13
2022-09-23T23:58:55.591Z,100503.16
